Time;durP1;ratioP1;P1;durP2;ratioP2;P2;SDS_P1;SDS_P2;PMS_P1;PMS_P2;Temp;Humidity;BMP_temperature;BMP_pressure;BME280_temperature;BME280_humidity;BME280_pressure;Samples;Min_cycle;Max_cycle;Signal;HPM_P1;HPM_P2
2021/12/29 00:00:18;;;;;;;5.57;1.40;;;;;;;8.74;86.74;96835.13;5059156;28;20200;-72
2021/12/29 00:02:44;;;;;;;3.23;0.90;;;;;;;8.71;87.04;96830.31;5058860;28;20194;-72
2021/12/29 00:05:11;;;;;;;1.80;0.87;;;;;;;8.78;85.83;96833.63;5058770;28;20225;-72
2021/12/29 00:07:37;;;;;;;5.90;1.23;;;;;;;8.73;86.78;96829.03;5058378;28;20224;-72
2021/12/29 00:10:05;;;;;;;4.23;1.20;;;;;;;8.77;86.24;96843.41;5058696;28;20196;-72
2021/12/29 00:12:39;;;;;;;3.13;0.80;;;;;;;8.91;84.75;96847.38;5058721;28;20189;-72
2021/12/29 00:15:05;;;;;;;4.03;1.00;;;;;;;8.95;84.81;96850.34;5058510;28;20312;-71
2021/12/29 00:17:32;;;;;;;3.33;1.20;;;;;;;8.99;83.81;96830.28;5058210;28;20614;-72
2021/12/29 00:19:58;;;;;;;3.23;0.97;;;;;;;8.90;85.13;96845.78;5058457;28;20635;-72
2021/12/29 00:22:25;;;;;;;4.50;0.80;;;;;;;8.95;84.27;96847.69;5058152;28;20201;-72
2021/12/29 00:24:51;;;;;;;4.00;1.00;;;;;;;9.01;83.69;96858.16;5058314;28;20204;-72
2021/12/29 00:27:17;;;;;;;5.30;1.17;;;;;;;8.99;84.71;96852.31;5058276;28;20221;-72
2021/12/29 00:29:44;;;;;;;5.23;1.20;;;;;;;8.94;84.63;96846.91;5058282;28;20367;-72
2021/12/29 00:32:10;;;;;;;5.03;0.90;;;;;;;8.92;83.94;96858.78;5058400;28;20193;-72
2021/12/29 00:34:36;;;;;;;3.43;1.00;;;;;;;8.92;84.15;96853.50;5058176;28;20189;-71
2021/12/29 00:37:03;;;;;;;1.47;0.80;;;;;;;9.02;82.83;96862.44;5058667;28;20517;-72
2021/12/29 00:39:29;;;;;;;2.20;0.80;;;;;;;8.96;83.47;96867.88;5058196;28;20189;-73
2021/12/29 00:41:56;;;;;;;2.70;0.90;;;;;;;8.97;83.40;96870.28;5057789;28;20205;-72
2021/12/29 00:44:22;;;;;;;1.70;1.20;;;;;;;8.93;84.10;96876.31;5057730;28;20209;-71
2021/12/29 00:46:53;;;;;;;3.20;0.83;;;;;;;8.86;84.57;96881.75;5057842;28;20228;-71
2021/12/29 00:49:20;;;;;;;2.40;0.80;;;;;;;8.87;84.77;96893.94;5057837;28;20189;-72
2021/12/29 00:51:48;;;;;;;2.37;1.00;;;;;;;8.84;85.54;96906.88;5057760;28;20201;-71
2021/12/29 00:54:14;;;;;;;4.03;1.10;;;;;;;8.87;84.87;96904.53;5058001;28;20215;-71
2021/12/29 00:56:41;;;;;;;4.23;0.70;;;;;;;8.83;85.83;96918.50;5057747;28;20221;-72
2021/12/29 00:59:07;;;;;;;4.63;1.03;;;;;;;8.77;86.47;96917.59;5057720;28;20193;-72
2021/12/29 01:01:33;;;;;;;1.93;0.80;;;;;;;8.75;87.21;96917.03;5057722;28;20190;-72
2021/12/29 01:04:00;;;;;;;3.00;0.80;;;;;;;8.78;86.56;96913.91;5057696;28;20200;-72
2021/12/29 01:06:26;;;;;;;1.33;0.80;;;;;;;8.73;87.68;96931.56;5057467;28;20225;-72
2021/12/29 01:08:53;;;;;;;3.20;0.77;;;;;;;8.66;88.30;96930.88;5057210;28;20200;-72
2021/12/29 01:11:19;;;;;;;3.37;0.90;;;;;;;8.64;88.31;96939.06;5057253;28;20575;-74
2021/12/29 01:13:48;;;;;;;3.30;0.70;;;;;;;8.60;88.86;96950.38;5057495;28;20185;-72
2021/12/29 01:16:36;;;;;;;1.63;0.50;;;;;;;8.64;89.00;96957.59;5057356;28;20221;-72
2021/12/29 01:19:32;;;;;;;2.30;0.67;;;;;;;8.73;87.24;96968.66;5057379;28;20209;-72
2021/12/29 01:22:00;;;;;;;2.90;0.67;;;;;;;8.67;88.26;96973.03;5056499;28;20208;-72
2021/12/29 01:24:28;;;;;;;1.50;0.70;;;;;;;8.81;86.62;96984.19;5057325;28;20196;-71
2021/12/29 01:26:55;;;;;;;1.43;0.70;;;;;;;8.82;86.89;96989.25;5057142;28;20263;-71
2021/12/29 01:29:22;;;;;;;2.97;0.60;;;;;;;8.80;87.03;96991.34;5056920;28;20580;-72
2021/12/29 01:31:49;;;;;;;2.37;0.80;;;;;;;8.83;86.19;96995.38;5057230;28;20280;-72
2021/12/29 01:34:16;;;;;;;1.80;0.70;;;;;;;8.78;87.22;96997.91;5057077;28;20208;-71
2021/12/29 01:36:43;;;;;;;1.10;0.57;;;;;;;8.82;86.78;97014.97;5056722;28;20217;-72
2021/12/29 01:39:13;;;;;;;2.23;0.93;;;;;;;8.77;87.01;97010.34;5057238;28;20205;-72
2021/12/29 01:41:40;;;;;;;2.00;0.90;;;;;;;8.79;87.21;97004.81;5056642;28;20213;-72
2021/12/29 01:44:08;;;;;;;2.90;0.60;;;;;;;8.79;86.95;97010.13;5056918;28;20284;-71
2021/12/29 01:46:35;;;;;;;1.80;0.47;;;;;;;8.81;87.11;97018.63;5056744;28;20233;-71
2021/12/29 01:49:02;;;;;;;1.97;0.60;;;;;;;8.80;86.97;97017.03;5056853;28;20197;-72
2021/12/29 01:51:30;;;;;;;2.17;0.70;;;;;;;8.83;86.46;97020.00;5056777;28;20241;-72
2021/12/29 01:54:14;;;;;;;1.20;0.57;;;;;;;8.84;86.35;97036.72;5056805;28;20197;-71
2021/12/29 01:56:41;;;;;;;2.23;0.80;;;;;;;8.86;86.04;97050.53;5056950;28;20224;-72
2021/12/29 01:59:08;;;;;;;1.60;0.70;;;;;;;8.83;86.57;97048.38;5056718;28;20202;-71
2021/12/29 02:01:34;;;;;;;0.90;0.60;;;;;;;8.78;87.36;97056.22;5056441;28;20285;-72
2021/12/29 02:04:00;;;;;;;1.53;0.60;;;;;;;8.78;87.18;97057.00;5056694;28;20194;-72
2021/12/29 02:06:27;;;;;;;1.23;0.43;;;;;;;8.80;87.58;97051.47;5056458;28;20267;-71
2021/12/29 02:08:56;;;;;;;1.43;0.40;;;;;;;8.74;87.30;97065.66;5056265;28;20581;-72
2021/12/29 02:11:29;;;;;;;1.60;0.60;;;;;;;8.70;88.01;97078.56;5056254;28;20185;-72
2021/12/29 02:13:58;;;;;;;1.10;0.50;;;;;;;8.74;87.12;97073.59;5056562;28;20229;-72
2021/12/29 02:16:25;;;;;;;2.33;0.60;;;;;;;8.77;86.71;97081.88;5056466;28;20275;-72
2021/12/29 02:18:57;;;;;;;0.40;0.30;;;;;;;8.79;87.04;97073.72;5056606;28;20204;-72
2021/12/29 02:21:25;;;;;;;0.90;0.40;;;;;;;8.73;86.84;97083.38;5055881;28;20190;-72
2021/12/29 02:24:16;;;;;;;0.83;0.33;;;;;;;8.84;85.38;97084.44;5056435;28;20196;-72
2021/12/29 02:26:42;;;;;;;1.13;0.47;;;;;;;8.85;84.64;97083.38;5056229;28;20233;-72
2021/12/29 02:29:12;;;;;;;0.33;0.33;;;;;;;8.86;84.75;97092.94;5056376;28;20185;-72
2021/12/29 02:31:38;;;;;;;1.30;0.57;;;;;;;8.84;84.15;97095.84;5056368;28;20193;-72
2021/12/29 02:34:08;;;;;;;0.93;0.40;;;;;;;8.90;83.58;97107.34;5056328;28;20205;-71
2021/12/29 02:36:35;;;;;;;2.17;0.50;;;;;;;8.90;83.28;97104.69;5056494;28;20260;-72
2021/12/29 02:39:04;;;;;;;1.63;0.60;;;;;;;8.94;82.22;97104.00;5056044;28;20595;-72
2021/12/29 02:41:31;;;;;;;0.83;0.50;;;;;;;8.98;81.62;97101.69;5056187;28;20217;-71
2021/12/29 02:44:00;;;;;;;1.27;0.47;;;;;;;8.95;82.07;97102.16;5056247;28;20284;-72
2021/12/29 02:46:28;;;;;;;2.13;0.67;;;;;;;8.90;82.50;97121.41;5056037;28;20551;-71
2021/12/29 02:48:59;;;;;;;0.70;0.53;;;;;;;8.92;81.84;97134.44;5056198;28;20342;-72
2021/12/29 02:51:29;;;;;;;1.17;0.47;;;;;;;9.05;80.30;97126.25;5056479;28;20280;-72
2021/12/29 02:53:55;;;;;;;1.97;0.80;;;;;;;9.02;81.15;97129.34;5055885;28;20616;-72
2021/12/29 02:56:25;;;;;;;1.00;0.40;;;;;;;8.97;81.30;97139.84;5056023;28;20217;-72
2021/12/29 02:58:52;;;;;;;1.10;0.30;;;;;;;9.01;80.77;97139.16;5056126;28;20247;-72
2021/12/29 03:01:19;;;;;;;2.37;0.37;;;;;;;8.94;81.56;97143.78;5056622;28;20193;-72
2021/12/29 03:03:46;;;;;;;1.90;0.60;;;;;;;9.01;81.72;97149.75;5056151;28;20503;-71
2021/12/29 03:06:13;;;;;;;0.70;0.30;;;;;;;8.94;81.75;97161.50;5055964;28;20228;-71
2021/12/29 03:08:41;;;;;;;0.80;0.50;;;;;;;8.97;81.74;97153.09;5055667;28;20209;-72
2021/12/29 03:11:08;;;;;;;1.57;0.67;;;;;;;8.92;82.01;97174.19;5055694;28;20193;-71
2021/12/29 03:13:38;;;;;;;1.47;0.47;;;;;;;9.07;80.38;97163.94;5055980;28;20194;-70
2021/12/29 03:16:05;;;;;;;0.50;0.50;;;;;;;8.96;81.76;97178.78;5055932;28;20520;-70
2021/12/29 03:18:31;;;;;;;1.20;0.40;;;;;;;9.00;81.03;97181.81;5055923;28;20197;-70
2021/12/29 03:20:58;;;;;;;1.40;0.50;;;;;;;9.02;81.13;97171.78;5055910;28;20213;-70
2021/12/29 03:23:25;;;;;;;0.60;0.40;;;;;;;9.00;81.68;97176.50;5055920;28;20201;-70
2021/12/29 03:25:52;;;;;;;0.93;0.50;;;;;;;9.04;81.35;97180.28;5055829;28;20221;-70
2021/12/29 03:28:23;;;;;;;1.17;0.50;;;;;;;9.00;81.72;97157.97;5055774;28;20217;-70
2021/12/29 03:30:52;;;;;;;1.07;0.50;;;;;;;8.99;81.75;97164.28;5056206;28;20186;-71
2021/12/29 03:33:23;;;;;;;2.37;0.70;;;;;;;9.05;81.87;97164.16;5059093;28;20280;-71
2021/12/29 03:35:57;;;;;;;1.90;0.50;;;;;;;9.04;81.99;97159.09;5058980;28;20228;-70
2021/12/29 03:38:26;;;;;;;1.97;0.50;;;;;;;9.05;81.21;97166.03;5059316;28;20196;-70
2021/12/29 03:40:54;;;;;;;0.57;0.40;;;;;;;9.04;81.74;97172.34;5059137;28;20185;-70
2021/12/29 03:43:21;;;;;;;2.27;0.60;;;;;;;9.11;81.75;97189.78;5059142;28;20194;-70
2021/12/29 03:45:50;;;;;;;1.20;0.47;;;;;;;9.04;82.71;97175.81;5059020;28;20248;-70
2021/12/29 03:48:17;;;;;;;0.43;0.40;;;;;;;9.08;82.39;97171.66;5059224;28;20240;-70
2021/12/29 03:50:43;;;;;;;1.70;0.50;;;;;;;9.06;82.85;97188.84;5059041;28;20204;-70
2021/12/29 03:53:13;;;;;;;1.03;0.40;;;;;;;9.05;82.59;97177.41;5059043;28;20224;-70
2021/12/29 03:55:39;;;;;;;0.53;0.40;;;;;;;8.99;83.65;97175.69;5058650;28;20260;-70
2021/12/29 03:58:05;;;;;;;2.00;0.40;;;;;;;9.00;83.21;97168.56;5058824;28;20236;-70
2021/12/29 04:00:32;;;;;;;1.80;0.40;;;;;;;8.92;84.61;97171.53;5058558;28;20510;-70
2021/12/29 04:02:58;;;;;;;0.40;0.37;;;;;;;8.98;83.50;97173.28;5058778;28;20205;-70
2021/12/29 04:05:25;;;;;;;0.40;0.30;;;;;;;8.96;84.01;97181.44;5058722;28;20221;-70
2021/12/29 04:07:54;;;;;;;0.70;0.23;;;;;;;8.97;84.51;97190.22;5058443;28;20643;-70
2021/12/29 04:10:21;;;;;;;0.23;0.23;;;;;;;8.87;86.38;97185.47;5058675;28;20235;-70
2021/12/29 04:12:47;;;;;;;0.47;0.20;;;;;;;8.79;87.31;97199.06;5058622;28;20209;-70
2021/12/29 04:15:15;;;;;;;0.20;0.20;;;;;;;8.76;87.60;97198.72;5058554;28;20228;-70
2021/12/29 04:17:42;;;;;;;0.40;0.30;;;;;;;8.73;88.40;97218.53;5058545;28;20204;-70
2021/12/29 04:22:55;;;;;;;0.40;0.30;;;;;;;8.60;90.66;97216.06;5058422;28;20171;-72
2021/12/29 04:25:24;;;;;;;0.50;0.27;;;;;;;8.59;90.88;97219.75;5058384;28;20228;-71
2021/12/29 04:27:56;;;;;;;0.40;0.30;;;;;;;8.55;92.14;97239.00;5058298;28;20210;-72
2021/12/29 04:30:24;;;;;;;0.30;0.30;;;;;;;8.55;92.15;97249.59;5058369;28;20200;-72
2021/12/29 04:32:52;;;;;;;0.30;0.30;;;;;;;8.44;93.71;97256.44;5058146;28;20186;-71
2021/12/29 04:35:20;;;;;;;0.20;0.20;;;;;;;8.42;95.04;97271.75;5057624;28;20257;-72
2021/12/29 04:37:46;;;;;;;0.33;0.23;;;;;;;8.39;95.69;97263.44;5057930;28;20209;-72
2021/12/29 04:40:13;;;;;;;1.00;0.43;;;;;;;8.36;95.85;97255.94;5057768;28;20212;-72
2021/12/29 04:42:40;;;;;;;0.27;0.27;;;;;;;8.37;95.63;97258.38;5056512;28;20221;-71
2021/12/29 04:45:06;;;;;;;1.17;0.30;;;;;;;8.35;95.13;97271.03;5057646;28;20224;-72
2021/12/29 04:47:38;;;;;;;1.03;0.40;;;;;;;8.34;95.43;97264.13;5057715;28;20221;-72
2021/12/29 04:50:07;;;;;;;1.27;0.40;;;;;;;8.36;96.35;97285.06;5057560;28;20577;-72
2021/12/29 04:52:34;;;;;;;0.30;0.30;;;;;;;8.32;97.42;97278.63;5057859;28;20236;-72
2021/12/29 04:55:00;;;;;;;0.30;0.30;;;;;;;8.30;97.71;97291.25;5057788;28;20232;-72
2021/12/29 04:57:28;;;;;;;0.60;0.30;;;;;;;8.22;99.15;97300.34;5057542;28;20615;-72
2021/12/29 04:59:55;;;;;;;0.97;0.30;;;;;;;8.19;99.26;97298.09;5057308;28;20604;-72
2021/12/29 05:02:21;;;;;;;0.30;0.30;;;;;;;8.16;100.00;97306.50;5057548;28;20208;-72
2021/12/29 05:04:56;;;;;;;0.50;0.30;;;;;;;8.16;100.00;97303.84;5057458;28;20197;-72
2021/12/29 05:10:07;;;;;;;0.27;0.20;;;;;;;7.98;100.00;97285.31;5057539;28;20492;-72
2021/12/29 05:12:33;;;;;;;0.67;0.40;;;;;;;7.83;100.00;97294.66;5058003;28;20501;-72
2021/12/29 05:14:59;;;;;;;1.60;0.30;;;;;;;7.88;100.00;97314.09;5057317;28;20200;-72
2021/12/29 05:17:26;;;;;;;1.70;0.40;;;;;;;7.80;100.00;97305.66;5057321;28;20189;-72
2021/12/29 05:19:52;;;;;;;0.20;0.20;;;;;;;7.81;100.00;97310.75;5057267;28;20232;-72
2021/12/29 05:22:19;;;;;;;0.20;0.20;;;;;;;7.78;100.00;97318.31;5056949;28;20190;-73
2021/12/29 05:24:45;;;;;;;0.40;0.33;;;;;;;7.76;100.00;97321.19;5056991;28;20189;-72
2021/12/29 05:27:11;;;;;;;1.90;0.50;;;;;;;7.77;100.00;97316.69;5057021;28;20231;-72
2021/12/29 05:29:38;;;;;;;0.30;0.30;;;;;;;7.76;100.00;97309.78;5057023;28;20208;-72
2021/12/29 05:32:06;;;;;;;0.57;0.40;;;;;;;7.71;100.00;97306.97;5057004;28;20308;-72
2021/12/29 05:34:33;;;;;;;0.43;0.40;;;;;;;7.71;100.00;97312.28;5057083;28;20276;-72
2021/12/29 05:37:00;;;;;;;1.03;0.57;;;;;;;7.70;100.00;97318.59;5056894;28;20237;-72
2021/12/29 05:39:27;;;;;;;1.80;0.47;;;;;;;7.71;100.00;97320.19;5056884;28;20197;-72
2021/12/29 05:41:53;;;;;;;0.60;0.50;;;;;;;7.73;100.00;97318.13;5056658;28;20209;-72
2021/12/29 05:44:19;;;;;;;1.40;0.50;;;;;;;7.72;100.00;97322.63;5056991;28;20196;-72
2021/12/29 05:46:46;;;;;;;1.90;0.80;;;;;;;7.73;100.00;97326.91;5056286;28;20534;-72
2021/12/29 05:49:12;;;;;;;2.23;0.47;;;;;;;7.71;100.00;97331.59;5056176;28;20640;-72
2021/12/29 05:51:38;;;;;;;0.40;0.37;;;;;;;7.70;100.00;97337.09;5056548;28;20212;-72
2021/12/29 05:54:05;;;;;;;1.33;0.70;;;;;;;7.73;100.00;97347.25;5056579;28;20201;-72
2021/12/29 05:56:31;;;;;;;1.20;0.40;;;;;;;7.74;100.00;97346.22;5056606;28;20225;-72
2021/12/29 05:59:01;;;;;;;2.50;0.50;;;;;;;7.75;100.00;97347.84;5056603;28;20201;-72
2021/12/29 06:01:28;;;;;;;1.00;0.50;;;;;;;7.71;100.00;97349.31;5056481;28;20288;-72
2021/12/29 06:03:55;;;;;;;1.30;0.50;;;;;;;7.64;100.00;97352.00;5056539;28;20194;-72
2021/12/29 06:06:21;;;;;;;2.10;0.73;;;;;;;7.66;100.00;97344.69;5056319;28;20221;-72
2021/12/29 06:08:47;;;;;;;0.87;0.50;;;;;;;7.70;100.00;97361.72;5056304;28;20209;-72
2021/12/29 06:11:14;;;;;;;0.97;0.60;;;;;;;7.72;100.00;97364.16;5056395;28;20205;-72
2021/12/29 06:13:41;;;;;;;0.80;0.50;;;;;;;7.68;100.00;97366.41;5056248;28;20516;-72
2021/12/29 06:16:07;;;;;;;3.90;0.80;;;;;;;7.69;100.00;97356.66;5055895;28;20231;-72
2021/12/29 06:18:33;;;;;;;1.97;0.70;;;;;;;7.69;100.00;97361.94;5055934;28;20213;-72
2021/12/29 06:20:59;;;;;;;1.70;0.50;;;;;;;7.70;100.00;97356.41;5056269;28;20208;-72
2021/12/29 06:23:26;;;;;;;2.17;0.70;;;;;;;7.64;100.00;97356.50;5056409;28;20243;-72
2021/12/29 06:25:52;;;;;;;1.33;0.53;;;;;;;7.63;100.00;97363.63;5055831;28;20300;-72
2021/12/29 06:28:19;;;;;;;2.00;0.70;;;;;;;7.60;100.00;97360.59;5056173;28;20213;-72
2021/12/29 06:30:46;;;;;;;2.13;0.60;;;;;;;7.66;100.00;97351.78;5056180;28;20512;-72
2021/12/29 06:33:12;;;;;;;2.43;0.73;;;;;;;7.68;100.00;97365.59;5056131;28;20197;-72
2021/12/29 06:35:39;;;;;;;3.50;0.70;;;;;;;7.65;100.00;97363.41;5055526;28;20604;-72
2021/12/29 06:38:05;;;;;;;1.60;0.60;;;;;;;7.60;100.00;97363.25;5056042;28;20243;-72
2021/12/29 06:40:32;;;;;;;2.13;0.73;;;;;;;7.63;100.00;97370.75;5055746;28;20205;-72
2021/12/29 06:42:58;;;;;;;3.60;0.63;;;;;;;7.64;100.00;97364.44;5055716;28;20216;-72
2021/12/29 06:45:26;;;;;;;1.73;0.50;;;;;;;7.66;100.00;97365.84;5055597;28;20228;-72
2021/12/29 06:47:53;;;;;;;2.30;0.60;;;;;;;7.70;100.00;97367.00;5055909;28;20214;-72
2021/12/29 06:50:19;;;;;;;2.23;0.60;;;;;;;7.73;100.00;97371.88;5055993;28;20201;-72
2021/12/29 06:52:47;;;;;;;3.37;0.90;;;;;;;7.74;100.00;97370.03;5055868;28;20207;-72
2021/12/29 06:55:13;;;;;;;1.90;0.67;;;;;;;7.77;100.00;97382.81;5055814;28;20229;-72
2021/12/29 06:57:39;;;;;;;2.53;0.60;;;;;;;7.75;100.00;97385.72;5055959;28;20209;-72
2021/12/29 07:00:07;;;;;;;2.57;0.70;;;;;;;7.77;100.00;97380.16;5056261;28;20193;-72
2021/12/29 07:02:33;;;;;;;2.20;0.67;;;;;;;7.78;100.00;97389.75;5055836;28;20201;-71
2021/12/29 07:05:00;;;;;;;2.57;0.87;;;;;;;7.76;100.00;97387.31;5055815;28;20213;-72
2021/12/29 07:07:26;;;;;;;1.33;0.57;;;;;;;7.72;100.00;97395.88;5058492;28;20604;-72
2021/12/29 07:09:52;;;;;;;2.57;0.60;;;;;;;7.76;100.00;97410.31;5059701;28;20194;-72
2021/12/29 07:12:20;;;;;;;2.47;0.73;;;;;;;7.75;100.00;97414.81;5059572;28;20205;-72
2021/12/29 07:14:47;;;;;;;2.67;0.40;;;;;;;7.76;100.00;97423.53;5059929;28;20278;-72
2021/12/29 07:17:14;;;;;;;2.47;0.60;;;;;;;7.73;100.00;97419.50;5059610;28;20193;-72
2021/12/29 07:19:40;;;;;;;1.97;0.80;;;;;;;7.70;100.00;97430.50;5059213;28;20592;-72
2021/12/29 07:22:07;;;;;;;1.73;0.67;;;;;;;7.74;100.00;97433.53;5059503;28;20193;-72
2021/12/29 07:24:34;;;;;;;1.27;0.60;;;;;;;7.69;100.00;97438.66;5059404;28;20207;-72
2021/12/29 07:27:02;;;;;;;3.23;0.87;;;;;;;7.71;100.00;97444.53;5059216;28;20225;-72
2021/12/29 07:29:28;;;;;;;0.80;0.50;;;;;;;7.67;100.00;97452.09;5058794;28;20542;-72
2021/12/29 07:31:57;;;;;;;2.50;0.80;;;;;;;7.68;100.00;97450.25;5059005;28;20213;-72
2021/12/29 07:34:24;;;;;;;2.70;0.70;;;;;;;7.71;100.00;97463.06;5059597;28;20190;-72
2021/12/29 07:36:51;;;;;;;2.67;0.80;;;;;;;7.69;100.00;97463.28;5058967;28;20233;-72
2021/12/29 07:39:17;;;;;;;1.57;0.70;;;;;;;7.68;100.00;97468.78;5058973;28;20220;-72
2021/12/29 07:41:46;;;;;;;1.77;0.90;;;;;;;7.79;100.00;97465.44;5058643;28;20232;-72
2021/12/29 07:44:13;;;;;;;2.70;0.50;;;;;;;7.73;100.00;97480.34;5058523;28;20688;-72
2021/12/29 07:46:42;;;;;;;2.27;0.83;;;;;;;7.72;100.00;97485.84;5058867;28;20231;-72
2021/12/29 07:49:08;;;;;;;5.47;1.17;;;;;;;7.72;100.00;97485.84;5058877;28;20219;-72
2021/12/29 07:51:35;;;;;;;1.27;0.80;;;;;;;7.69;100.00;97492.38;5058824;28;20213;-72
2021/12/29 07:54:01;;;;;;;1.57;0.70;;;;;;;7.70;100.00;97487.91;5058522;28;20201;-73
2021/12/29 07:56:28;;;;;;;3.27;0.90;;;;;;;7.70;100.00;97486.06;5058501;28;20248;-72
2021/12/29 07:58:54;;;;;;;3.70;0.63;;;;;;;7.73;100.00;97490.91;5058967;28;20190;-72
2021/12/29 08:01:21;;;;;;;2.00;1.00;;;;;;;7.72;100.00;97489.31;5058451;28;20214;-72
2021/12/29 08:03:47;;;;;;;1.50;0.70;;;;;;;7.71;100.00;97494.81;5058451;28;20209;-72
2021/12/29 08:06:16;;;;;;;2.17;0.90;;;;;;;7.68;100.00;97504.00;5058476;28;20279;-72
2021/12/29 08:08:43;;;;;;;1.43;0.67;;;;;;;7.75;100.00;97501.31;5058547;28;20221;-72
2021/12/29 08:11:09;;;;;;;0.40;0.40;;;;;;;7.78;100.00;97508.81;5058150;28;20194;-72
2021/12/29 08:13:36;;;;;;;0.90;0.60;;;;;;;7.72;100.00;97501.72;5058705;28;20196;-72
2021/12/29 08:16:02;;;;;;;1.43;0.60;;;;;;;7.73;100.00;97505.97;5057862;28;20644;-72
2021/12/29 08:18:28;;;;;;;2.23;0.60;;;;;;;7.74;100.00;97504.97;5057039;28;20193;-72
2021/12/29 08:20:55;;;;;;;3.33;0.73;;;;;;;7.73;100.00;97503.34;5058200;28;20197;-72
2021/12/29 08:23:21;;;;;;;1.53;0.60;;;;;;;7.77;100.00;97507.16;5058285;28;20205;-72
2021/12/29 08:25:48;;;;;;;1.43;0.70;;;;;;;7.84;100.00;97500.00;5057985;28;20317;-72
2021/12/29 08:28:14;;;;;;;1.90;0.60;;;;;;;7.89;100.00;97503.63;5057878;28;20213;-72
2021/12/29 08:30:41;;;;;;;0.60;0.60;;;;;;;7.94;100.00;97513.56;5057782;28;20213;-72
2021/12/29 08:33:08;;;;;;;1.47;0.60;;;;;;;8.03;100.00;97515.75;5057776;28;20494;-72
2021/12/29 08:35:35;;;;;;;2.20;0.80;;;;;;;8.12;100.00;97521.56;5057932;28;20225;-72
2021/12/29 08:38:01;;;;;;;1.33;0.50;;;;;;;8.13;100.00;97516.06;5057771;28;20212;-72
2021/12/29 08:40:28;;;;;;;1.33;0.60;;;;;;;8.20;100.00;97518.66;5057844;28;20193;-72
2021/12/29 08:42:58;;;;;;;1.10;0.50;;;;;;;8.22;100.00;97521.91;5057805;28;20209;-72
2021/12/29 08:45:26;;;;;;;1.07;0.50;;;;;;;8.26;100.00;97504.56;5057640;28;20243;-72
2021/12/29 08:47:55;;;;;;;1.00;0.53;;;;;;;8.23;100.00;97510.31;5057650;28;20193;-72
2021/12/29 08:50:22;;;;;;;0.77;0.50;;;;;;;8.30;100.00;97506.59;5057391;28;20602;-72
2021/12/29 08:52:49;;;;;;;1.03;0.50;;;;;;;8.31;100.00;97507.38;5057660;28;20202;-72
2021/12/29 08:55:15;;;;;;;1.70;0.70;;;;;;;8.28;100.00;97507.84;5057521;28;20225;-72
2021/12/29 08:57:43;;;;;;;3.93;0.70;;;;;;;8.32;100.00;97507.16;5057108;28;20592;-72
2021/12/29 09:00:13;;;;;;;2.47;1.03;;;;;;;8.25;100.00;97517.03;5057599;28;20189;-72
2021/12/29 09:02:40;;;;;;;1.90;0.73;;;;;;;8.26;100.00;97512.50;5057554;28;20198;-72
2021/12/29 09:05:07;;;;;;;2.00;0.80;;;;;;;8.31;100.00;97520.63;5057229;28;20222;-72
2021/12/29 09:07:33;;;;;;;2.37;1.00;;;;;;;8.33;100.00;97508.00;5057444;28;20197;-72
2021/12/29 09:10:01;;;;;;;1.23;0.77;;;;;;;8.38;100.00;97508.94;5057054;28;20217;-72
2021/12/29 09:12:28;;;;;;;1.67;0.93;;;;;;;8.39;100.00;97510.56;5057680;28;20247;-72
2021/12/29 09:14:54;;;;;;;1.07;0.80;;;;;;;8.36;100.00;97510.19;5058059;28;20481;-72
2021/12/29 09:17:20;;;;;;;3.30;1.00;;;;;;;8.41;100.00;97523.59;5056854;28;20498;-72
2021/12/29 09:19:47;;;;;;;1.63;0.90;;;;;;;8.48;100.00;97530.47;5057145;28;20201;-72
2021/12/29 09:22:14;;;;;;;1.60;1.30;;;;;;;8.50;100.00;97524.91;5057070;28;20197;-72
2021/12/29 09:24:43;;;;;;;1.50;0.70;;;;;;;8.48;100.00;97530.47;5056651;28;20581;-72
2021/12/29 09:27:10;;;;;;;1.97;0.70;;;;;;;8.48;100.00;97534.94;5057027;28;20375;-72
2021/12/29 09:29:37;;;;;;;2.20;1.00;;;;;;;8.53;100.00;97535.09;5056710;28;20520;-72
2021/12/29 09:32:04;;;;;;;1.80;0.73;;;;;;;8.55;100.00;97531.19;5057146;28;20208;-72
2021/12/29 09:34:32;;;;;;;3.47;0.93;;;;;;;8.61;100.00;97530.34;5057060;28;20217;-72
2021/12/29 09:36:59;;;;;;;2.40;0.70;;;;;;;8.66;100.00;97540.25;5056878;28;20270;-72
2021/12/29 09:39:25;;;;;;;1.33;0.80;;;;;;;8.68;100.00;97546.13;5056838;28;20192;-72
2021/12/29 09:41:53;;;;;;;3.47;1.00;;;;;;;8.62;100.00;97550.50;5056279;28;20213;-72
2021/12/29 09:44:19;;;;;;;4.30;1.17;;;;;;;8.59;100.00;97563.34;5056606;28;20198;-72
2021/12/29 09:46:48;;;;;;;1.77;0.97;;;;;;;8.51;100.00;97567.09;5056504;28;20217;-72
2021/12/29 09:49:15;;;;;;;3.50;1.00;;;;;;;8.53;100.00;97566.88;5056525;28;20216;-72
2021/12/29 09:51:41;;;;;;;1.30;0.93;;;;;;;8.59;100.00;97550.09;5056588;28;20189;-72
2021/12/29 09:54:08;;;;;;;2.93;0.90;;;;;;;8.63;100.00;97544.16;5056666;28;20189;-72
2021/12/29 09:56:34;;;;;;;3.70;1.00;;;;;;;8.75;100.00;97558.31;5057016;28;20221;-72
2021/12/29 09:59:01;;;;;;;4.53;1.17;;;;;;;8.76;100.00;97553.81;5056414;28;20197;-72
2021/12/29 10:01:27;;;;;;;1.63;0.80;;;;;;;8.81;100.00;97562.72;5056350;28;20291;-72
2021/12/29 10:03:54;;;;;;;1.00;0.63;;;;;;;8.85;100.00;97563.09;5056458;28;20208;-72
2021/12/29 10:06:20;;;;;;;1.37;1.00;;;;;;;9.00;100.00;97552.97;5056410;28;20224;-72
2021/12/29 10:08:52;;;;;;;2.73;1.20;;;;;;;9.05;100.00;97564.50;5056451;28;20222;-72
2021/12/29 10:11:27;;;;;;;2.07;1.00;;;;;;;8.94;100.00;97561.78;5056479;28;20234;-72
2021/12/29 10:13:54;;;;;;;2.13;0.80;;;;;;;8.95;100.00;97560.72;5056371;28;20185;-73
2021/12/29 10:16:25;;;;;;;3.37;1.30;;;;;;;9.01;100.00;97557.22;5056076;28;20309;-72
2021/12/29 10:19:01;;;;;;;2.97;1.10;;;;;;;9.05;100.00;97543.28;5056221;28;20181;-73
2021/12/29 10:21:29;;;;;;;1.83;0.90;;;;;;;9.16;100.00;97542.56;5055836;28;20496;-72
2021/12/29 10:23:58;;;;;;;3.97;1.00;;;;;;;9.25;100.00;97543.06;5056159;28;20193;-72
2021/12/29 10:26:31;;;;;;;2.50;1.10;;;;;;;9.25;100.00;97532.44;5056572;28;20224;-72
2021/12/29 10:29:03;;;;;;;2.97;1.30;;;;;;;9.19;100.00;97533.34;5056102;28;20216;-72
2021/12/29 10:31:37;;;;;;;1.53;0.93;;;;;;;9.18;100.00;97537.00;5056206;28;20248;-72
2021/12/29 10:34:08;;;;;;;3.77;1.10;;;;;;;9.15;100.00;97532.97;5056071;28;20193;-72
2021/12/29 10:36:49;;;;;;;4.07;1.23;;;;;;;9.13;100.00;97531.56;5055985;28;20228;-72
2021/12/29 10:39:19;;;;;;;2.60;1.40;;;;;;;9.20;100.00;97530.50;5055977;28;20192;-72
2021/12/29 10:41:58;;;;;;;2.63;1.17;;;;;;;9.24;100.00;97521.03;5057707;28;20297;-72
2021/12/29 10:44:58;;;;;;;2.43;1.20;;;;;;;9.29;99.53;97525.66;5060939;28;20274;-72
2021/12/29 10:47:31;;;;;;;2.90;1.13;;;;;;;9.26;99.79;97526.09;5059243;28;20551;-72
2021/12/29 10:50:06;;;;;;;3.27;1.23;;;;;;;9.35;100.00;97516.81;5059881;28;20556;-72
2021/12/29 10:52:37;;;;;;;1.90;1.10;;;;;;;9.39;99.95;97521.47;5059979;28;20576;-72
2021/12/29 10:55:09;;;;;;;4.03;1.47;;;;;;;9.32;100.00;97520.72;5059817;28;20213;-72
2021/12/29 10:57:35;;;;;;;4.47;1.40;;;;;;;9.26;98.04;97523.47;5059927;28;20585;-72
2021/12/29 11:00:05;;;;;;;4.00;1.67;;;;;;;9.31;100.00;97519.09;5059814;28;20189;-72
2021/12/29 11:02:35;;;;;;;4.03;1.13;;;;;;;9.29;99.60;97528.31;5059752;28;20621;-72
2021/12/29 11:05:05;;;;;;;3.83;1.60;;;;;;;9.28;99.58;97524.84;5059759;28;20193;-72
2021/12/29 11:07:33;;;;;;;3.03;1.07;;;;;;;9.39;98.92;97529.41;5059635;28;20197;-72
2021/12/29 11:10:20;;;;;;;2.00;1.13;;;;;;;9.40;97.98;97532.88;5059712;28;20220;-72
2021/12/29 11:12:55;;;;;;;3.90;1.17;;;;;;;9.29;100.00;97529.16;5059686;28;20239;-72
2021/12/29 11:15:25;;;;;;;4.83;1.43;;;;;;;9.28;99.95;97529.38;5059526;28;20247;-72
2021/12/29 11:17:56;;;;;;;3.40;1.30;;;;;;;9.32;98.98;97527.88;5059203;28;20224;-72
2021/12/29 11:20:26;;;;;;;2.53;1.07;;;;;;;9.33;98.80;97524.19;5059415;28;20185;-72
2021/12/29 11:23:05;;;;;;;3.87;1.33;;;;;;;9.33;97.81;97525.00;5059371;28;20228;-72
2021/12/29 11:25:33;;;;;;;2.63;1.30;;;;;;;9.47;97.97;97515.03;5059217;28;20304;-72
2021/12/29 11:28:00;;;;;;;3.07;1.33;;;;;;;9.41;98.88;97515.94;5059195;28;20190;-72
2021/12/29 11:30:27;;;;;;;4.13;1.40;;;;;;;9.32;100.00;97512.75;5059123;28;20260;-72
2021/12/29 11:33:08;;;;;;;3.90;1.40;;;;;;;9.37;100.00;97504.16;5059200;28;20189;-72
2021/12/29 11:35:50;;;;;;;5.80;1.50;;;;;;;9.43;99.79;97506.72;5059320;28;20229;-72
2021/12/29 11:38:18;;;;;;;2.80;1.27;;;;;;;9.44;99.29;97502.19;5058817;28;20503;-73
2021/12/29 11:40:48;;;;;;;2.93;1.13;;;;;;;9.60;98.27;97498.94;5059004;28;20497;-72
2021/12/29 11:43:17;;;;;;;3.70;1.10;;;;;;;9.43;97.26;97512.03;5058677;28;20593;-72
2021/12/29 11:45:45;;;;;;;3.27;1.33;;;;;;;9.43;95.38;97513.84;5058863;28;20221;-72